Tongue Point, Oregon
Current Conditions -  °F | °C
As of 10:55 PM on Monday 20 Oct 2014 (Local Time) from KAST Reporting Station
Scattered Clouds Scattered Clouds  
Wind Chill: 56°   Ceiling: Unl
Heat Index: 56°   Visibility: 10mi
Dew Point: 52°   Wind: 8mph
Humidity: 87%   Direction: 170°S
Pressure: 29.8"   Gusts: NA
Location:  46.0947°N, 123.685°W
Report Text: KAST 210555Z AUTO 17007KT 10SM FEW022 SCT038 13/11 A2980 RMK AO2 RAB21E32 SLP089 P0000 60000 T01330111 10161 20133 53009
Loading
Personal Weather Stations






























Interactive Weather Map
Tropical Storm Tracking
New forecast layout! Learn more

10-Day Weather Forecast

Advertisements
Track Severe Weather on mobile